createdAt,value
2019-03-28T00:01:58.628Z,9.37
2019-03-28T00:04:24.556Z,8.97
2019-03-28T00:06:50.508Z,9.30
2019-03-28T00:09:16.340Z,9.47
2019-03-28T00:11:42.229Z,9.33
2019-03-28T00:14:08.052Z,9.83
2019-03-28T00:16:33.899Z,9.43
2019-03-28T00:18:59.787Z,8.30
2019-03-28T00:21:26.290Z,10.87
2019-03-28T00:23:59.891Z,8.80
2019-03-28T00:26:30.558Z,9.07
2019-03-28T00:28:53.609Z,9.17
2019-03-28T00:32:09.074Z,8.90
2019-03-28T00:34:35.361Z,9.17
2019-03-28T00:37:01.403Z,9.80
2019-03-28T00:39:27.379Z,8.70
2019-03-28T00:41:53.217Z,9.13
2019-03-28T00:44:19.160Z,9.33
2019-03-28T00:46:45.741Z,9.57
2019-03-28T00:49:11.940Z,9.33
2019-03-28T00:51:37.771Z,9.33
2019-03-28T00:54:03.645Z,9.73
2019-03-28T00:56:42.701Z,8.67
2019-03-28T00:58:57.379Z,9.30
2019-03-28T01:01:23.292Z,9.33
2019-03-28T01:03:49.125Z,9.50
2019-03-28T01:06:15.104Z,9.67
2019-03-28T01:08:41.094Z,9.43
2019-03-28T01:11:06.934Z,9.57
2019-03-28T01:13:32.770Z,9.37
2019-03-28T01:15:58.718Z,9.37
2019-03-28T01:18:24.613Z,9.17
2019-03-28T01:20:51.217Z,8.83
2019-03-28T01:23:17.305Z,8.63
2019-03-28T01:25:43.185Z,8.47
2019-03-28T01:28:09.005Z,7.83
2019-03-28T01:30:34.941Z,7.80
2019-03-28T01:33:01.723Z,8.20
2019-03-28T01:35:27.571Z,8.03
2019-03-28T01:37:54.369Z,7.93
2019-03-28T01:40:20.514Z,7.40
2019-03-28T01:42:46.361Z,7.17
2019-03-28T01:45:12.685Z,7.00
2019-03-28T01:47:38.677Z,7.37
2019-03-28T01:50:04.807Z,6.73
2019-03-28T01:52:30.681Z,7.00
2019-03-28T01:54:56.529Z,6.17
2019-03-28T01:57:22.380Z,6.20
2019-03-28T01:59:48.260Z,6.73
2019-03-28T02:02:14.085Z,5.67
2019-03-28T02:04:40.000Z,5.60
2019-03-28T02:07:05.885Z,5.47
2019-03-28T02:09:32.326Z,4.00
2019-03-28T02:11:58.355Z,4.03
2019-03-28T02:14:24.230Z,4.20
2019-03-28T02:16:50.173Z,4.23
2019-03-28T02:19:16.018Z,3.80
2019-03-28T02:21:41.847Z,4.00
2019-03-28T02:24:07.776Z,4.10
2019-03-28T02:26:34.243Z,3.93
2019-03-28T02:29:00.301Z,5.83
2019-03-28T02:31:26.138Z,5.77
2019-03-28T02:33:51.984Z,6.53
2019-03-28T02:36:17.870Z,6.17
2019-03-28T02:38:43.713Z,7.00
2019-03-28T02:41:09.567Z,7.07
2019-03-28T02:43:35.520Z,7.77
2019-03-28T02:46:01.349Z,7.47
2019-03-28T02:48:27.800Z,7.53
2019-03-28T02:50:53.949Z,7.90
2019-03-28T02:53:19.845Z,8.10
2019-03-28T02:55:45.689Z,8.07
2019-03-28T02:58:11.540Z,8.77
2019-03-28T03:00:37.391Z,8.77
2019-03-28T03:03:03.430Z,9.10
2019-03-28T03:05:29.406Z,8.77
2019-03-28T03:07:55.248Z,8.50
2019-03-28T03:10:21.116Z,8.87
2019-03-28T03:12:46.949Z,8.77
2019-03-28T03:15:13.392Z,8.07
2019-03-28T03:17:39.378Z,8.63
2019-03-28T03:20:05.924Z,9.07
2019-03-28T03:22:31.775Z,8.13
2019-03-28T03:24:57.676Z,8.50
2019-03-28T03:27:23.506Z,8.70
2019-03-28T03:29:49.446Z,8.50
2019-03-28T03:32:15.309Z,8.27
2019-03-28T03:34:41.200Z,8.50
2019-03-28T03:37:07.190Z,8.70
2019-03-28T03:39:33.017Z,8.80
2019-03-28T03:41:59.056Z,8.43
2019-03-28T03:44:24.959Z,8.70
2019-03-28T03:46:50.788Z,7.90
2019-03-28T03:49:18.658Z,8.20
2019-03-28T03:51:46.624Z,8.77
2019-03-28T03:54:12.519Z,8.47
2019-03-28T03:56:38.356Z,8.17
2019-03-28T03:59:04.297Z,8.30
2019-03-28T04:01:30.244Z,8.27
2019-03-28T04:03:56.297Z,8.03
2019-03-28T04:06:22.225Z,8.40
2019-03-28T04:08:48.103Z,8.67
2019-03-28T04:11:14.112Z,8.43
2019-03-28T04:13:40.033Z,8.27
2019-03-28T04:16:06.016Z,8.50
2019-03-28T04:18:31.946Z,8.27
2019-03-28T04:20:58.432Z,8.23
2019-03-28T04:23:24.335Z,8.60
2019-03-28T04:25:50.294Z,8.90
2019-03-28T04:28:30.846Z,7.93
2019-03-28T04:30:44.005Z,8.90
2019-03-28T04:33:09.905Z,8.33
2019-03-28T04:35:35.800Z,8.80
2019-03-28T04:38:01.705Z,9.00
2019-03-28T04:40:27.601Z,9.17
2019-03-28T04:42:53.495Z,9.17
2019-03-28T04:45:19.533Z,8.20
2019-03-28T04:47:45.450Z,8.87
2019-03-28T04:50:11.902Z,8.80
2019-03-28T04:52:37.819Z,9.20
2019-03-28T04:55:05.230Z,8.93
2019-03-28T04:57:31.237Z,8.33
2019-03-28T04:59:57.151Z,9.10
2019-03-28T05:02:23.033Z,8.80
2019-03-28T05:04:49.057Z,8.00
2019-03-28T05:07:14.942Z,8.93
2019-03-28T05:09:40.865Z,8.70
2019-03-28T05:12:06.738Z,8.20
2019-03-28T05:14:32.636Z,8.47
2019-03-28T05:16:58.575Z,9.40
2019-03-28T05:19:24.483Z,8.93
2019-03-28T05:21:50.403Z,8.43
2019-03-28T05:24:16.336Z,8.37
2019-03-28T05:26:42.241Z,7.70
2019-03-28T05:29:08.149Z,8.33
2019-03-28T05:31:34.412Z,8.00
2019-03-28T05:34:00.495Z,8.40
2019-03-28T05:36:26.692Z,8.27
2019-03-28T05:38:52.612Z,8.63
2019-03-28T05:41:18.511Z,8.07
2019-03-28T05:43:45.552Z,8.63
2019-03-28T05:46:11.702Z,8.17
2019-03-28T05:48:37.650Z,8.27
2019-03-28T05:51:03.761Z,8.20
2019-03-28T05:53:29.609Z,9.00
2019-03-28T05:55:55.444Z,9.10
2019-03-28T05:58:21.356Z,8.27
2019-03-28T06:00:51.150Z,8.87
2019-03-28T06:03:14.996Z,9.10
2019-03-28T06:05:40.863Z,8.40
2019-03-28T06:08:06.699Z,9.00
2019-03-28T06:10:32.562Z,8.97
2019-03-28T06:12:58.401Z,8.90
2019-03-28T06:15:26.142Z,8.90
2019-03-28T06:17:52.127Z,8.13
2019-03-28T06:20:18.055Z,8.20
2019-03-28T06:22:43.921Z,8.17
2019-03-28T06:25:09.900Z,8.47
2019-03-28T06:27:35.815Z,9.00
2019-03-28T06:30:02.610Z,8.53
2019-03-28T06:32:41.993Z,8.60
2019-03-28T06:34:56.285Z,8.33
2019-03-28T06:37:22.312Z,8.80
2019-03-28T06:39:48.169Z,9.10
2019-03-28T06:42:14.007Z,8.70
2019-03-28T06:44:39.886Z,9.10
2019-03-28T06:47:05.709Z,9.00
2019-03-28T06:49:31.654Z,9.20
2019-03-28T06:51:57.504Z,8.73
2019-03-28T06:54:24.463Z,9.43
2019-03-28T06:56:50.523Z,9.50
2019-03-28T06:59:16.563Z,8.97
2019-03-28T07:01:42.394Z,8.80
2019-03-28T07:04:08.358Z,8.87
2019-03-28T07:06:34.324Z,8.80
2019-03-28T07:09:00.138Z,9.10
2019-03-28T07:11:26.089Z,8.20
2019-03-28T07:13:51.927Z,8.53
2019-03-28T07:16:20.924Z,9.43
2019-03-28T07:18:45.550Z,9.07
2019-03-28T07:21:11.569Z,8.90
2019-03-28T07:23:37.446Z,8.63
2019-03-28T07:26:03.323Z,9.53
2019-03-28T07:28:29.189Z,7.90
2019-03-28T07:30:55.126Z,8.60
2019-03-28T07:33:21.145Z,8.67
2019-03-28T07:35:47.072Z,8.20
2019-03-28T07:38:12.899Z,8.73
2019-03-28T07:40:38.840Z,8.10
2019-03-28T07:43:04.762Z,7.27
2019-03-28T07:45:30.747Z,7.50
2019-03-28T07:47:56.587Z,7.47
2019-03-28T07:50:22.597Z,7.30
2019-03-28T07:52:48.568Z,6.93
2019-03-28T07:55:16.478Z,6.40
2019-03-28T07:57:42.312Z,6.97
2019-03-28T08:00:10.132Z,6.67
2019-03-28T08:02:35.959Z,7.00
2019-03-28T08:05:03.820Z,6.90
2019-03-28T08:07:29.774Z,6.13
2019-03-28T08:09:55.606Z,6.67
2019-03-28T08:12:23.228Z,6.00
2019-03-28T08:14:49.195Z,6.73
2019-03-28T08:17:15.093Z,6.77
2019-03-28T08:19:41.681Z,6.40
2019-03-28T08:22:07.606Z,6.17
2019-03-28T08:24:33.487Z,6.30
2019-03-28T08:26:59.310Z,6.80
2019-03-28T08:29:25.259Z,6.90
2019-03-28T08:31:52.762Z,5.77
2019-03-28T08:34:18.885Z,6.30
2019-03-28T08:36:45.633Z,6.47
2019-03-28T08:39:11.535Z,6.50
2019-03-28T08:41:37.381Z,6.30
2019-03-28T08:44:03.432Z,6.63
2019-03-28T08:46:29.435Z,6.47
2019-03-28T08:48:55.254Z,6.17
2019-03-28T08:51:21.243Z,6.87
2019-03-28T08:53:47.097Z,6.53
2019-03-28T08:56:12.955Z,6.60
2019-03-28T08:58:38.779Z,6.77
2019-03-28T09:01:05.884Z,7.03
2019-03-28T09:03:32.107Z,6.90
2019-03-28T09:05:57.942Z,6.77
2019-03-28T09:08:23.810Z,7.03
2019-03-28T09:10:49.640Z,6.97
2019-03-28T09:13:15.601Z,7.00
2019-03-28T09:15:44.114Z,6.53
2019-03-28T09:18:09.732Z,7.03
2019-03-28T09:20:35.586Z,6.67
2019-03-28T09:23:01.562Z,6.70
2019-03-28T09:25:27.480Z,7.47
2019-03-28T09:27:53.412Z,6.80
2019-03-28T09:30:48.095Z,7.17
2019-03-28T09:33:05.433Z,7.20
2019-03-28T09:35:31.504Z,7.47
2019-03-28T09:37:57.501Z,6.97
2019-03-28T09:40:23.461Z,7.67
2019-03-28T09:42:49.498Z,7.00
2019-03-28T09:45:15.579Z,6.80
2019-03-28T09:47:41.508Z,7.20
2019-03-28T09:50:07.875Z,8.27
2019-03-28T09:52:33.735Z,6.97
2019-03-28T09:54:59.662Z,7.60
2019-03-28T09:57:25.500Z,7.77
2019-03-28T09:59:51.548Z,8.23
2019-03-28T10:02:17.426Z,7.17
2019-03-28T10:04:43.254Z,7.47
2019-03-28T10:07:09.156Z,8.60
2019-03-28T10:09:35.450Z,7.40
2019-03-28T10:12:01.474Z,7.50
2019-03-28T10:14:27.442Z,7.67
2019-03-28T10:16:53.276Z,7.50
2019-03-28T10:19:19.329Z,9.67
2019-03-28T10:21:45.255Z,7.70
2019-03-28T10:24:11.623Z,7.70
2019-03-28T10:26:37.737Z,7.67
2019-03-28T10:29:03.731Z,8.37
2019-03-28T10:31:29.749Z,8.10
2019-03-28T10:33:55.696Z,8.40
2019-03-28T10:36:21.575Z,8.23
2019-03-28T10:38:47.470Z,8.83
2019-03-28T10:41:13.382Z,8.80
2019-03-28T10:43:39.352Z,8.60
2019-03-28T10:46:05.363Z,9.13
2019-03-28T10:48:31.409Z,8.77
2019-03-28T10:50:57.395Z,9.13
2019-03-28T10:53:29.825Z,10.13
2019-03-28T10:55:54.362Z,9.50
2019-03-28T10:58:20.482Z,9.20
2019-03-28T11:00:46.496Z,8.83
2019-03-28T11:03:12.469Z,9.00
2019-03-28T11:05:38.422Z,9.47
2019-03-28T11:08:04.430Z,8.97
2019-03-28T11:10:30.734Z,9.67
2019-03-28T11:12:56.752Z,8.93
2019-03-28T11:15:22.856Z,9.83
2019-03-28T11:17:48.933Z,9.70
2019-03-28T11:20:15.047Z,9.60
2019-03-28T11:22:41.022Z,9.80
2019-03-28T11:25:07.152Z,9.70
2019-03-28T11:27:33.258Z,10.53
2019-03-28T11:29:59.547Z,8.97
2019-03-28T11:32:25.656Z,9.63
2019-03-28T11:34:51.657Z,9.03
2019-03-28T11:37:26.068Z,8.63
2019-03-28T11:39:46.641Z,10.60
2019-03-28T11:42:12.895Z,10.10
2019-03-28T11:44:38.763Z,10.00
2019-03-28T11:47:04.608Z,8.97
2019-03-28T11:49:30.522Z,10.10
2019-03-28T11:51:56.565Z,9.97
2019-03-28T11:54:22.529Z,9.43
2019-03-28T11:56:48.538Z,10.00
2019-03-28T11:59:14.484Z,9.07
2019-03-28T12:01:40.412Z,9.83
2019-03-28T12:04:06.335Z,10.03
2019-03-28T12:06:32.368Z,9.47
2019-03-28T12:08:58.210Z,10.10
2019-03-28T12:11:24.102Z,9.90
2019-03-28T12:13:50.041Z,12.93
2019-03-28T12:16:16.995Z,9.20
2019-03-28T12:18:43.167Z,10.07
2019-03-28T12:21:09.237Z,9.97
2019-03-28T12:23:35.128Z,9.50
2019-03-28T12:26:01.150Z,9.93
2019-03-28T12:28:27.223Z,9.93
2019-03-28T12:30:53.115Z,10.00
2019-03-28T12:33:19.318Z,10.40
2019-03-28T12:35:45.184Z,10.27
2019-03-28T12:38:11.089Z,11.00
2019-03-28T12:40:37.036Z,10.07
2019-03-28T12:43:03.050Z,10.17
2019-03-28T12:45:29.035Z,10.53
2019-03-28T12:47:54.876Z,10.77
2019-03-28T12:50:20.870Z,11.00
2019-03-28T12:52:46.816Z,11.57
2019-03-28T12:55:12.962Z,11.37
2019-03-28T12:57:38.891Z,10.83
2019-03-28T13:00:06.850Z,10.67
2019-03-28T13:02:33.017Z,9.77
2019-03-28T13:04:59.165Z,11.20
2019-03-28T13:07:25.607Z,10.27
2019-03-28T13:09:51.713Z,10.30
2019-03-28T13:12:17.651Z,9.17
2019-03-28T13:14:43.462Z,9.47
2019-03-28T13:17:09.453Z,9.20
2019-03-28T13:19:35.366Z,10.43
2019-03-28T13:22:02.435Z,10.40
2019-03-28T13:24:28.684Z,10.23
2019-03-28T13:26:54.579Z,9.40
2019-03-28T13:29:20.696Z,9.05
2019-03-28T13:31:46.616Z,8.63
2019-03-28T13:34:12.462Z,8.83
2019-03-28T13:36:38.391Z,9.15
2019-03-28T13:39:05.192Z,9.00
2019-03-28T13:41:31.308Z,8.88
2019-03-28T13:43:57.504Z,8.90
2019-03-28T13:46:23.437Z,9.38
2019-03-28T13:48:49.285Z,9.53
2019-03-28T13:51:15.145Z,11.83
2019-03-28T13:53:41.075Z,9.53
2019-03-28T13:56:07.003Z,10.05
2019-03-28T13:58:32.953Z,11.22
2019-03-28T14:00:59.008Z,11.22
2019-03-28T14:03:26.730Z,8.78
2019-03-28T14:05:52.664Z,8.80
2019-03-28T14:08:18.609Z,9.15
2019-03-28T14:10:44.783Z,8.93
2019-03-28T14:13:10.715Z,9.43
2019-03-28T14:15:36.649Z,9.48
2019-03-28T14:18:02.786Z,10.18
2019-03-28T14:20:28.796Z,10.50
2019-03-28T14:22:54.760Z,10.75
2019-03-28T14:25:20.825Z,11.15
2019-03-28T14:27:46.940Z,10.65
2019-03-28T14:30:12.982Z,10.88
2019-03-28T14:32:52.121Z,10.65
2019-03-28T14:35:06.868Z,11.28
2019-03-28T14:37:32.901Z,10.95
2019-03-28T14:39:59.102Z,11.12
2019-03-28T14:42:25.063Z,10.93
2019-03-28T14:44:50.993Z,10.53
2019-03-28T14:47:16.894Z,10.05
2019-03-28T14:49:42.891Z,9.98
2019-03-28T14:52:09.104Z,10.58
2019-03-28T14:54:35.165Z,9.90
2019-03-28T14:57:01.786Z,10.68
2019-03-28T14:59:32.687Z,9.95
2019-03-28T15:01:55.729Z,10.15
2019-03-28T15:04:21.630Z,10.25
2019-03-28T15:06:47.678Z,10.20
2019-03-28T15:09:13.553Z,9.73
2019-03-28T15:11:39.569Z,10.85
2019-03-28T15:14:05.587Z,11.05
2019-03-28T15:16:31.489Z,10.48
2019-03-28T15:18:57.405Z,10.75
2019-03-28T15:21:23.463Z,10.45
2019-03-28T15:23:49.329Z,11.18
2019-03-28T15:26:15.321Z,11.00
2019-03-28T15:28:41.229Z,11.22
2019-03-28T15:31:07.339Z,11.03
2019-03-28T15:33:39.317Z,10.55
2019-03-28T15:36:01.125Z,11.63
2019-03-28T15:38:27.065Z,10.93
2019-03-28T15:40:52.980Z,10.32
2019-03-28T15:43:18.903Z,10.78
2019-03-28T15:45:44.832Z,10.65
2019-03-28T15:48:11.002Z,11.78
2019-03-28T15:50:36.895Z,11.10
2019-03-28T15:53:02.925Z,11.50
2019-03-28T15:55:28.911Z,12.47
2019-03-28T15:57:54.815Z,12.20
2019-03-28T16:00:20.951Z,11.83
2019-03-28T16:02:46.905Z,13.20
2019-03-28T16:05:12.890Z,11.50
2019-03-28T16:07:38.741Z,11.53
2019-03-28T16:10:09.751Z,11.40
2019-03-28T16:12:35.848Z,11.63
2019-03-28T16:15:03.147Z,12.95
2019-03-28T16:17:29.247Z,12.25
2019-03-28T16:19:55.235Z,11.77
2019-03-28T16:22:21.214Z,12.30
2019-03-28T16:24:47.128Z,12.70
2019-03-28T16:27:13.136Z,12.20
2019-03-28T16:29:39.198Z,12.07
2019-03-28T16:32:05.196Z,12.43
2019-03-28T16:34:31.082Z,12.30
2019-03-28T16:36:57.069Z,12.20
2019-03-28T16:39:22.992Z,12.17
2019-03-28T16:41:49.629Z,11.37
2019-03-28T16:44:15.954Z,11.87
2019-03-28T16:46:41.970Z,11.97
2019-03-28T16:49:08.287Z,14.23
2019-03-28T16:51:34.486Z,11.77
2019-03-28T16:54:01.599Z,12.17
2019-03-28T16:56:28.087Z,12.23
2019-03-28T16:58:55.526Z,12.73
2019-03-28T17:01:21.985Z,12.50
2019-03-28T17:03:47.895Z,12.37
2019-03-28T17:06:13.986Z,11.80
2019-03-28T17:08:44.077Z,11.90
2019-03-28T17:11:12.176Z,12.13
2019-03-28T17:13:38.141Z,12.80
2019-03-28T17:16:04.284Z,12.73
2019-03-28T17:18:31.274Z,12.37
2019-03-28T17:20:57.619Z,13.37
2019-03-28T17:23:23.683Z,12.27
2019-03-28T17:25:49.612Z,11.93
2019-03-28T17:28:15.712Z,12.20
2019-03-28T17:30:41.956Z,11.87
2019-03-28T17:33:07.863Z,12.63
2019-03-28T17:35:33.773Z,14.77
2019-03-28T17:37:59.815Z,13.10
2019-03-28T17:40:25.747Z,12.13
2019-03-28T17:42:51.698Z,11.77
2019-03-28T17:45:17.615Z,11.40
2019-03-28T17:47:43.493Z,11.73
2019-03-28T17:50:09.877Z,12.47
2019-03-28T17:52:36.021Z,12.57
2019-03-28T17:55:03.676Z,11.73
2019-03-28T17:57:29.867Z,12.27
2019-03-28T17:59:55.765Z,12.37
2019-03-28T18:02:21.875Z,12.83
2019-03-28T18:04:48.417Z,12.57
2019-03-28T18:07:14.343Z,12.57
2019-03-28T18:09:40.438Z,12.70
2019-03-28T18:12:06.251Z,12.07
2019-03-28T18:14:32.224Z,12.03
2019-03-28T18:16:59.558Z,11.40
2019-03-28T18:19:25.559Z,11.83
2019-03-28T18:22:02.766Z,11.80
2019-03-28T18:24:19.766Z,11.63
2019-03-28T18:26:45.751Z,12.60
2019-03-28T18:29:11.690Z,11.97
2019-03-28T18:31:49.688Z,13.43
2019-03-28T18:34:05.520Z,12.00
2019-03-28T18:36:31.372Z,13.00
2019-03-28T18:38:57.459Z,15.33
2019-03-28T18:41:23.566Z,13.87
2019-03-28T18:43:49.861Z,14.37
2019-03-28T18:46:15.978Z,14.50
2019-03-28T18:48:42.030Z,15.23
2019-03-28T18:51:08.144Z,16.90
2019-03-28T18:53:34.106Z,18.50
2019-03-28T18:56:00.034Z,19.07
2019-03-28T18:58:25.955Z,18.93
2019-03-28T19:00:52.256Z,18.87
2019-03-28T19:03:18.291Z,18.47
2019-03-28T19:05:44.247Z,19.33
2019-03-28T19:08:10.179Z,18.40
2019-03-28T19:10:36.244Z,18.47
2019-03-28T19:13:04.618Z,18.87
2019-03-28T19:15:30.252Z,20.30
2019-03-28T19:17:56.160Z,19.82
2019-03-28T19:20:22.120Z,18.93
2019-03-28T19:22:50.177Z,17.47
2019-03-28T19:25:16.213Z,19.20
2019-03-28T19:27:42.215Z,16.90
2019-03-28T19:30:09.203Z,17.63
2019-03-28T19:32:35.279Z,20.30
2019-03-28T19:35:03.369Z,24.07
2019-03-28T19:37:30.029Z,25.30
2019-03-28T19:39:55.864Z,28.77
2019-03-28T19:42:22.655Z,31.13
2019-03-28T19:44:49.806Z,30.90
2019-03-28T19:47:15.634Z,39.57
2019-03-28T19:49:41.706Z,41.80
2019-03-28T19:52:07.694Z,33.40
2019-03-28T19:54:33.821Z,33.27
2019-03-28T19:56:59.861Z,36.57
2019-03-28T19:59:26.027Z,36.63
2019-03-28T20:01:52.271Z,37.00
2019-03-28T20:04:18.089Z,37.03
2019-03-28T20:06:44.206Z,37.53
2019-03-28T20:09:16.208Z,37.47
2019-03-28T20:11:39.020Z,35.53
2019-03-28T20:14:05.203Z,38.30
2019-03-28T20:16:31.161Z,38.30
2019-03-28T20:18:57.147Z,39.93
2019-03-28T20:21:23.128Z,42.00
2019-03-28T20:23:49.215Z,47.27
2019-03-28T20:26:15.137Z,49.70
2019-03-28T20:28:41.192Z,49.43
2019-03-28T20:31:07.280Z,47.60
2019-03-28T20:33:33.316Z,49.67
2019-03-28T20:36:18.857Z,47.17
2019-03-28T20:38:27.272Z,44.13
2019-03-28T20:40:53.234Z,43.20
2019-03-28T20:43:19.165Z,40.97
2019-03-28T20:45:45.397Z,38.10
2019-03-28T20:48:11.432Z,38.77
2019-03-28T20:50:37.444Z,37.53
2019-03-28T20:53:03.549Z,42.30
2019-03-28T20:55:29.548Z,40.67
2019-03-28T21:00:36.750Z,42.07
2019-03-28T21:03:03.397Z,43.23
2019-03-28T21:05:30.918Z,42.83
2019-03-28T21:07:57.033Z,42.43
2019-03-28T21:10:23.991Z,38.40
2019-03-28T21:12:50.350Z,35.93
2019-03-28T21:15:16.317Z,36.93
2019-03-28T21:17:42.290Z,39.27
2019-03-28T21:20:08.441Z,42.70
2019-03-28T21:22:34.385Z,44.03
2019-03-28T21:25:00.381Z,43.70
2019-03-28T21:27:26.287Z,43.37
2019-03-28T21:29:52.389Z,43.87
2019-03-28T21:32:18.895Z,43.33
2019-03-28T21:34:45.030Z,43.03
2019-03-28T21:37:11.194Z,36.97
2019-03-28T21:39:39.945Z,50.67
2019-03-28T21:42:07.208Z,40.03
2019-03-28T21:44:33.063Z,35.87
2019-03-28T21:46:59.105Z,37.80
2019-03-28T21:49:24.975Z,35.40
2019-03-28T21:51:50.967Z,35.80
2019-03-28T21:54:16.914Z,38.13
2019-03-28T21:56:42.876Z,38.03
2019-03-28T21:59:09.006Z,39.23
2019-03-28T22:01:34.909Z,38.10
2019-03-28T22:04:00.729Z,38.23
2019-03-28T22:06:26.725Z,38.47
2019-03-28T22:08:52.583Z,37.10
2019-03-28T22:11:18.817Z,37.80
2019-03-28T22:13:44.767Z,34.20
2019-03-28T22:16:10.645Z,34.20
2019-03-28T22:18:36.484Z,37.73
2019-03-28T22:21:02.468Z,37.57
2019-03-28T22:23:30.497Z,39.47
2019-03-28T22:25:56.488Z,41.50
2019-03-28T22:28:22.466Z,42.30
2019-03-28T22:30:48.638Z,41.50
2019-03-28T22:33:15.773Z,42.30
2019-03-28T22:35:41.812Z,38.63
2019-03-28T22:38:07.828Z,36.10
2019-03-28T22:40:33.822Z,33.50
2019-03-28T22:42:59.718Z,32.67
2019-03-28T22:45:25.801Z,30.87
2019-03-28T22:47:51.694Z,30.20
2019-03-28T22:50:17.529Z,29.67
2019-03-28T22:52:43.705Z,28.07
2019-03-28T22:55:10.274Z,26.43
2019-03-28T22:57:36.250Z,25.10
2019-03-28T23:00:05.973Z,26.60
2019-03-28T23:02:31.829Z,27.40
2019-03-28T23:04:57.763Z,32.20
2019-03-28T23:07:23.607Z,39.03
2019-03-28T23:09:49.822Z,40.37
2019-03-28T23:12:16.403Z,42.13
2019-03-28T23:14:42.368Z,43.13
2019-03-28T23:17:08.408Z,40.37
2019-03-28T23:19:34.316Z,37.70
2019-03-28T23:22:00.154Z,34.80
2019-03-28T23:24:26.099Z,34.43
2019-03-28T23:26:52.059Z,32.20
2019-03-28T23:29:18.084Z,27.83
2019-03-28T23:31:43.923Z,27.10
2019-03-28T23:34:09.833Z,25.93
2019-03-28T23:36:35.672Z,26.03
2019-03-28T23:39:01.845Z,28.10
2019-03-28T23:41:27.738Z,25.83
2019-03-28T23:43:53.651Z,26.97
2019-03-28T23:46:19.508Z,28.20
2019-03-28T23:48:45.605Z,27.87
2019-03-28T23:51:11.561Z,27.83
2019-03-28T23:53:37.621Z,27.07
2019-03-28T23:56:03.508Z,26.77
2019-03-28T23:58:29.447Z,23.87
